Time;durP1;ratioP1;P1;durP2;ratioP2;P2;SDS_P1;SDS_P2;PMS_P1;PMS_P2;Temp;Humidity;BMP_temperature;BMP_pressure;BME280_temperature;BME280_humidity;BME280_pressure;Samples;Min_cycle;Max_cycle;Signal;HPM_P1;HPM_P2
2022/03/08 00:02:21;;;;;;;13.52;10.45;;;3.80;63.90;;;;;;5038454;28;20044;-76
2022/03/08 00:04:47;;;;;;;14.13;9.82;;;3.80;64.00;;;;;;5041815;28;20023;-76
2022/03/08 00:07:12;;;;;;;11.93;8.13;;;3.70;63.80;;;;;;5044098;28;20175;-76
2022/03/08 00:09:38;;;;;;;10.35;7.78;;;3.70;63.80;;;;;;5044012;28;20082;-76
2022/03/08 00:12:04;;;;;;;11.35;7.88;;;3.70;63.80;;;;;;5050921;28;20115;-75
2022/03/08 00:14:32;;;;;;;12.65;9.18;;;3.70;63.70;;;;;;5047164;28;20479;-76
2022/03/08 00:16:57;;;;;;;12.60;9.40;;;3.70;63.60;;;;;;5050883;28;20031;-76
2022/03/08 00:19:23;;;;;;;11.98;8.77;;;3.70;63.60;;;;;;5050812;28;20028;-76
2022/03/08 00:21:48;;;;;;;12.95;9.23;;;3.70;63.60;;;;;;5047210;28;20035;-76
2022/03/08 00:24:16;;;;;;;12.18;8.88;;;3.70;63.60;;;;;;5040618;28;20542;-76
2022/03/08 00:26:41;;;;;;;13.15;9.20;;;3.70;63.50;;;;;;5048764;28;20024;-76
2022/03/08 00:29:07;;;;;;;11.95;8.43;;;3.60;63.30;;;;;;5045872;28;20112;-75
2022/03/08 00:31:32;;;;;;;12.65;9.02;;;3.60;63.20;;;;;;5040521;28;20061;-76
2022/03/08 00:33:58;;;;;;;13.13;9.32;;;3.60;63.20;;;;;;5047180;28;20029;-76
2022/03/08 00:36:24;;;;;;;11.13;8.65;;;3.60;63.10;;;;;;5049753;28;20040;-76
2022/03/08 00:38:49;;;;;;;11.38;8.85;;;3.60;63.00;;;;;;5049346;28;20028;-76
2022/03/08 00:41:16;;;;;;;12.80;9.60;;;3.60;62.90;;;;;;5048993;28;20037;-76
2022/03/08 00:43:41;;;;;;;12.55;8.63;;;3.60;62.90;;;;;;5042314;28;20021;-76
2022/03/08 00:46:07;;;;;;;10.55;8.07;;;3.60;62.90;;;;;;5047113;28;20036;-76
2022/03/08 00:48:32;;;;;;;14.18;9.05;;;3.60;62.80;;;;;;5050123;28;20033;-76
2022/03/08 00:50:58;;;;;;;11.73;9.10;;;3.60;62.70;;;;;;5049760;28;20033;-76
2022/03/08 00:53:24;;;;;;;11.98;9.13;;;3.50;62.60;;;;;;5049813;28;20025;-75
2022/03/08 00:55:50;;;;;;;12.95;8.90;;;3.50;62.50;;;;;;5049632;28;20518;-76
2022/03/08 00:58:15;;;;;;;12.07;8.75;;;3.50;62.40;;;;;;5043378;28;20094;-76
2022/03/08 01:00:41;;;;;;;12.10;8.27;;;3.50;62.30;;;;;;5047122;28;20078;-76
2022/03/08 01:03:08;;;;;;;11.60;7.93;;;3.50;62.30;;;;;;5046548;28;20041;-76
2022/03/08 01:05:34;;;;;;;10.40;7.47;;;3.50;62.20;;;;;;5042533;28;20016;-75
2022/03/08 01:08:01;;;;;;;11.43;7.68;;;3.50;62.20;;;;;;5050005;28;20025;-76
2022/03/08 01:10:28;;;;;;;11.50;8.60;;;3.50;62.10;;;;;;5049334;28;20025;-75
2022/03/08 01:12:55;;;;;;;10.50;7.53;;;3.50;62.10;;;;;;5048708;28;20494;-75
2022/03/08 01:15:24;;;;;;;11.75;8.13;;;3.50;62.20;;;;;;5046557;28;20030;-75
2022/03/08 01:17:50;;;;;;;10.43;7.65;;;3.50;62.10;;;;;;5047151;28;20075;-75
2022/03/08 01:20:16;;;;;;;10.65;7.82;;;3.40;62.10;;;;;;5049291;28;20029;-75
2022/03/08 01:22:42;;;;;;;10.45;7.53;;;3.40;62.20;;;;;;5051067;28;20403;-75
2022/03/08 01:25:09;;;;;;;14.48;9.43;;;3.30;62.20;;;;;;5037700;28;20063;-75
2022/03/08 01:27:35;;;;;;;11.95;8.65;;;3.30;62.40;;;;;;5043235;28;20040;-76
2022/03/08 01:30:02;;;;;;;30.00;17.08;;;3.30;62.40;;;;;;5048398;28;20036;-76
2022/03/08 01:32:29;;;;;;;12.68;8.93;;;3.30;62.40;;;;;;5044487;28;20086;-76
2022/03/08 01:34:54;;;;;;;12.63;7.72;;;3.30;62.40;;;;;;5044499;28;20144;-75
2022/03/08 01:37:20;;;;;;;11.43;8.30;;;3.30;62.40;;;;;;5045173;28;20033;-76
2022/03/08 01:39:45;;;;;;;11.07;7.70;;;3.30;62.40;;;;;;5047265;28;20036;-76
2022/03/08 01:42:15;;;;;;;11.90;8.02;;;3.30;62.40;;;;;;5038009;28;20029;-75
2022/03/08 01:44:46;;;;;;;11.05;7.22;;;3.20;62.40;;;;;;5046961;28;20040;-75
2022/03/08 01:47:17;;;;;;;10.70;8.38;;;3.20;62.40;;;;;;5034708;28;20151;-76
2022/03/08 01:49:43;;;;;;;9.35;7.13;;;3.20;62.20;;;;;;5048131;28;20025;-76
2022/03/08 01:52:09;;;;;;;9.52;7.15;;;3.20;62.90;;;;;;5048953;28;20025;-75
2022/03/08 01:54:35;;;;;;;10.75;7.78;;;3.20;62.00;;;;;;5040419;28;20036;-75
2022/03/08 01:57:02;;;;;;;10.18;7.45;;;3.20;61.90;;;;;;5043425;28;20094;-75
2022/03/08 01:59:28;;;;;;;12.57;8.75;;;3.20;61.80;;;;;;5046839;28;20052;-75
2022/03/08 02:01:53;;;;;;;12.65;8.85;;;3.20;61.70;;;;;;5037811;28;20207;-76
2022/03/08 02:04:20;;;;;;;9.77;7.32;;;3.20;61.70;;;;;;5043097;28;20159;-76
2022/03/08 02:06:46;;;;;;;10.02;7.65;;;3.20;61.60;;;;;;5044096;28;20106;-76
2022/03/08 02:09:12;;;;;;;9.60;7.22;;;3.20;61.40;;;;;;5038697;28;20419;-76
2022/03/08 02:11:38;;;;;;;9.45;6.50;;;3.10;61.30;;;;;;5037644;28;20026;-76
2022/03/08 02:14:04;;;;;;;10.73;7.53;;;3.20;61.30;;;;;;5039166;28;20071;-76
2022/03/08 02:16:30;;;;;;;9.52;6.88;;;3.20;61.20;;;;;;5045668;28;20057;-76
2022/03/08 02:18:55;;;;;;;9.52;7.13;;;3.20;61.30;;;;;;5041806;28;20036;-76
2022/03/08 02:21:21;;;;;;;10.07;7.13;;;3.20;61.20;;;;;;5040294;28;20030;-76
2022/03/08 02:23:47;;;;;;;8.57;6.80;;;3.10;61.10;;;;;;5043930;28;20082;-76
2022/03/08 02:26:13;;;;;;;8.77;6.68;;;3.10;61.00;;;;;;5035822;28;20498;-75
2022/03/08 02:28:40;;;;;;;8.75;6.78;;;3.10;60.90;;;;;;5044284;28;20108;-76
2022/03/08 02:31:06;;;;;;;9.00;6.78;;;3.10;60.90;;;;;;5042030;28;20032;-76
2022/03/08 02:33:32;;;;;;;9.70;6.30;;;3.10;60.80;;;;;;5047053;28;20083;-75
2022/03/08 02:35:57;;;;;;;7.93;6.38;;;3.10;60.70;;;;;;5043212;28;20032;-75
2022/03/08 02:38:23;;;;;;;8.23;6.30;;;3.10;60.60;;;;;;5045365;28;20032;-75
2022/03/08 02:40:49;;;;;;;7.65;6.38;;;3.00;60.60;;;;;;5043546;28;20017;-75
2022/03/08 02:43:14;;;;;;;9.13;6.50;;;3.10;60.50;;;;;;5045519;28;20077;-76
2022/03/08 02:45:40;;;;;;;8.88;6.40;;;3.00;60.30;;;;;;5046108;28;20471;-76
2022/03/08 02:48:07;;;;;;;9.73;7.25;;;3.00;60.30;;;;;;5039841;28;20493;-76
2022/03/08 02:50:33;;;;;;;8.00;6.30;;;3.00;60.10;;;;;;5041545;28;20123;-75
2022/03/08 02:52:59;;;;;;;7.40;5.75;;;3.00;60.00;;;;;;5046618;28;20096;-75
2022/03/08 02:55:27;;;;;;;7.72;6.45;;;3.00;59.90;;;;;;5048391;28;20021;-75
2022/03/08 02:57:54;;;;;;;9.98;6.68;;;3.00;59.90;;;;;;5046341;28;20029;-76
2022/03/08 03:00:22;;;;;;;8.20;5.80;;;2.90;59.70;;;;;;5047289;28;20056;-76
2022/03/08 03:02:48;;;;;;;7.43;5.30;;;3.00;59.70;;;;;;5047451;28;20371;-76
2022/03/08 03:05:14;;;;;;;8.82;6.28;;;3.00;59.60;;;;;;5048814;28;20028;-75
2022/03/08 03:07:40;;;;;;;7.55;5.57;;;2.90;59.50;;;;;;5047092;28;20032;-76
2022/03/08 03:10:14;;;;;;;9.65;6.57;;;2.90;59.40;;;;;;5050955;28;20029;-75
2022/03/08 03:12:39;;;;;;;7.30;5.45;;;2.90;59.20;;;;;;5045351;28;20021;-76
2022/03/08 03:15:07;;;;;;;7.32;5.47;;;2.90;59.10;;;;;;5043434;28;20022;-76
2022/03/08 03:17:33;;;;;;;7.85;5.97;;;3.00;59.20;;;;;;5037516;28;20028;-75
2022/03/08 03:19:59;;;;;;;7.57;6.00;;;3.00;59.10;;;;;;5040062;28;20025;-76
2022/03/08 03:22:24;;;;;;;8.38;6.18;;;3.00;59.10;;;;;;5047009;28;20049;-76
2022/03/08 03:24:50;;;;;;;9.38;6.50;;;2.90;58.90;;;;;;5050028;28;20083;-76
2022/03/08 03:27:15;;;;;;;7.10;5.30;;;2.90;58.80;;;;;;5050620;28;20482;-76
2022/03/08 03:29:41;;;;;;;8.55;5.97;;;2.90;58.90;;;;;;5043106;28;20074;-75
2022/03/08 03:32:07;;;;;;;8.38;6.35;;;2.90;58.80;;;;;;5043560;28;20122;-75
2022/03/08 03:34:32;;;;;;;8.02;5.72;;;2.90;58.90;;;;;;5051040;28;20526;-75
2022/03/08 03:36:58;;;;;;;8.38;5.60;;;2.90;58.80;;;;;;5046065;28;20029;-75
2022/03/08 03:39:24;;;;;;;8.45;5.75;;;2.90;58.70;;;;;;5047687;28;20036;-76
2022/03/08 03:41:49;;;;;;;7.95;5.65;;;2.90;58.80;;;;;;5035558;28;20032;-75
2022/03/08 03:44:15;;;;;;;7.82;5.88;;;2.90;58.80;;;;;;5049289;28;20064;-75
2022/03/08 03:46:40;;;;;;;8.13;5.43;;;2.90;58.70;;;;;;5050095;28;20033;-75
2022/03/08 03:49:06;;;;;;;7.28;5.03;;;2.90;58.70;;;;;;5047660;28;20082;-75
2022/03/08 03:51:32;;;;;;;8.77;6.20;;;2.90;58.70;;;;;;5042598;28;20021;-75
2022/03/08 03:53:57;;;;;;;6.88;5.30;;;2.90;58.60;;;;;;5042963;28;20021;-76
2022/03/08 03:56:23;;;;;;;7.45;5.68;;;2.90;58.70;;;;;;5045176;28;20490;-76
2022/03/08 03:58:48;;;;;;;8.40;5.82;;;2.90;58.70;;;;;;5038622;28;20754;-76
2022/03/08 04:01:15;;;;;;;7.07;5.30;;;2.90;58.70;;;;;;5034971;28;20423;-76
2022/03/08 04:03:40;;;;;;;7.68;5.00;;;2.90;58.60;;;;;;5044095;28;20025;-76
2022/03/08 04:06:07;;;;;;;8.20;5.55;;;2.80;58.70;;;;;;5048143;28;20025;-76
2022/03/08 04:08:33;;;;;;;7.63;6.43;;;2.90;58.70;;;;;;5049368;28;20052;-76
2022/03/08 04:10:58;;;;;;;6.75;5.13;;;2.80;58.70;;;;;;5048775;28;20051;-75
2022/03/08 04:13:24;;;;;;;6.65;4.95;;;2.90;58.80;;;;;;5050484;28;20033;-75
2022/03/08 04:15:49;;;;;;;7.45;5.45;;;2.80;58.80;;;;;;5039857;28;20403;-76
2022/03/08 04:18:15;;;;;;;7.05;5.78;;;2.80;58.70;;;;;;5044597;28;20371;-76
2022/03/08 04:20:40;;;;;;;7.78;6.00;;;2.80;58.80;;;;;;5044209;28;20661;-76
2022/03/08 04:23:06;;;;;;;8.10;6.20;;;2.80;58.70;;;;;;5032127;28;20046;-76
2022/03/08 04:25:32;;;;;;;10.70;6.07;;;2.80;58.60;;;;;;5046558;28;20028;-75
2022/03/08 04:27:57;;;;;;;8.10;6.07;;;2.80;58.50;;;;;;5048823;28;20025;-75
2022/03/08 04:30:23;;;;;;;6.55;5.45;;;2.80;58.50;;;;;;5046202;28;20463;-75
2022/03/08 04:32:51;;;;;;;7.68;5.90;;;2.70;58.50;;;;;;5042882;28;20120;-74
2022/03/08 04:35:18;;;;;;;7.13;5.50;;;2.70;58.50;;;;;;5045174;28;20021;-75
2022/03/08 04:37:44;;;;;;;7.07;5.38;;;2.80;58.40;;;;;;5034920;28;20030;-74
2022/03/08 04:40:11;;;;;;;7.13;5.13;;;2.80;58.40;;;;;;5044820;28;20096;-75
2022/03/08 04:42:37;;;;;;;6.30;4.88;;;2.80;58.50;;;;;;5042159;28;20042;-74
2022/03/08 04:45:03;;;;;;;8.57;5.60;;;2.80;58.40;;;;;;5041914;28;20124;-74
2022/03/08 04:47:28;;;;;;;7.70;5.20;;;2.80;58.20;;;;;;5044506;28;20056;-75
2022/03/08 04:49:54;;;;;;;5.90;5.03;;;2.80;58.30;;;;;;5042447;28;20021;-75
2022/03/08 04:52:19;;;;;;;6.00;4.60;;;2.80;58.30;;;;;;5050608;28;20029;-75
2022/03/08 04:54:45;;;;;;;9.15;5.18;;;2.80;58.30;;;;;;5047777;28;20091;-74
2022/03/08 04:57:11;;;;;;;6.43;4.82;;;2.80;58.30;;;;;;5050474;28;20068;-75
2022/03/08 04:59:36;;;;;;;6.40;4.88;;;2.80;58.20;;;;;;5044206;28;20108;-75
2022/03/08 05:02:06;;;;;;;7.05;5.60;;;2.80;58.10;;;;;;5038235;28;20037;-75
2022/03/08 05:04:32;;;;;;;8.85;6.03;;;2.80;58.00;;;;;;5045442;28;20079;-76
2022/03/08 05:06:57;;;;;;;7.07;4.82;;;2.80;58.00;;;;;;5049506;28;20386;-76
2022/03/08 05:09:23;;;;;;;5.65;4.75;;;2.80;58.10;;;;;;5047635;28;20056;-76
2022/03/08 05:11:48;;;;;;;7.50;5.43;;;2.80;58.20;;;;;;5048059;28;20108;-76
2022/03/08 05:14:14;;;;;;;10.13;7.32;;;2.80;58.00;;;;;;5049669;28;20037;-76
2022/03/08 05:16:39;;;;;;;11.68;8.15;;;2.80;58.10;;;;;;5049076;28;20045;-76
2022/03/08 05:19:06;;;;;;;8.77;5.95;;;2.80;58.20;;;;;;5046236;28;20025;-75
2022/03/08 05:21:31;;;;;;;8.15;5.43;;;2.80;58.20;;;;;;5043135;28;20114;-75
2022/03/08 05:23:57;;;;;;;7.15;5.60;;;2.70;58.10;;;;;;5050452;28;20029;-75
2022/03/08 05:26:22;;;;;;;8.18;5.40;;;2.70;58.20;;;;;;5046859;28;20021;-76
2022/03/08 05:28:48;;;;;;;6.07;4.90;;;2.80;58.30;;;;;;5045827;28;20078;-76
2022/03/08 05:31:14;;;;;;;7.82;5.85;;;2.70;58.30;;;;;;5043930;28;20040;-76
2022/03/08 05:33:40;;;;;;;7.68;5.90;;;2.70;58.30;;;;;;5038891;28;20094;-76
2022/03/08 05:36:06;;;;;;;7.00;5.40;;;2.60;58.30;;;;;;5043700;28;20025;-76
2022/03/08 05:38:31;;;;;;;7.90;6.63;;;2.70;58.40;;;;;;5049098;28;20044;-74
2022/03/08 05:40:57;;;;;;;7.88;6.40;;;2.70;58.40;;;;;;5046261;28;20052;-75
2022/03/08 05:43:22;;;;;;;7.97;5.85;;;2.60;58.40;;;;;;5048779;28;20044;-76
2022/03/08 05:45:48;;;;;;;6.50;5.43;;;2.60;58.50;;;;;;5047425;28;20013;-74
2022/03/08 05:48:14;;;;;;;9.20;6.50;;;2.60;58.50;;;;;;5048663;28;20584;-75
2022/03/08 05:50:39;;;;;;;7.28;5.88;;;2.60;58.60;;;;;;5044485;28;20571;-74
2022/03/08 05:53:05;;;;;;;8.07;6.65;;;2.60;58.70;;;;;;5039254;28;20021;-75
2022/03/08 05:55:30;;;;;;;7.72;5.97;;;2.60;58.80;;;;;;5048686;28;20029;-75
2022/03/08 05:57:56;;;;;;;7.93;6.00;;;2.60;58.80;;;;;;5048402;28;20035;-75
2022/03/08 06:00:21;;;;;;;7.68;5.70;;;2.60;58.80;;;;;;5045238;28;20471;-75
2022/03/08 06:02:47;;;;;;;8.25;6.47;;;2.50;58.70;;;;;;5043699;28;20037;-75
2022/03/08 06:05:13;;;;;;;7.45;5.90;;;2.60;58.80;;;;;;5047690;28;20032;-75
2022/03/08 06:07:38;;;;;;;15.20;7.10;;;2.60;58.70;;;;;;5041687;28;20025;-73
2022/03/08 06:10:07;;;;;;;7.95;6.32;;;2.60;58.60;;;;;;5040781;28;20022;-74
2022/03/08 06:12:32;;;;;;;8.50;6.57;;;2.50;58.60;;;;;;5043988;28;20438;-75
2022/03/08 06:14:58;;;;;;;6.88;5.65;;;2.60;58.60;;;;;;5039052;28;20062;-75
2022/03/08 06:17:24;;;;;;;7.47;6.15;;;2.60;58.70;;;;;;5041376;28;20108;-75
2022/03/08 06:19:49;;;;;;;6.68;5.68;;;2.60;58.60;;;;;;5046067;28;20241;-75
2022/03/08 06:22:15;;;;;;;7.00;5.85;;;2.60;58.60;;;;;;5036667;28;20041;-74
2022/03/08 06:24:41;;;;;;;8.82;6.60;;;2.60;58.60;;;;;;5041740;28;20055;-75
2022/03/08 06:27:06;;;;;;;8.27;6.40;;;2.50;58.60;;;;;;5035601;28;20458;-76
2022/03/08 06:29:32;;;;;;;11.07;7.10;;;2.60;58.60;;;;;;5048813;28;20025;-75
2022/03/08 06:31:58;;;;;;;7.93;6.22;;;2.60;58.50;;;;;;5040914;28;20036;-75
2022/03/08 06:34:23;;;;;;;7.75;5.72;;;2.60;58.50;;;;;;5048016;28;20037;-75
2022/03/08 06:36:49;;;;;;;9.05;6.47;;;2.60;58.50;;;;;;5039031;28;20082;-75
2022/03/08 06:39:14;;;;;;;8.25;6.13;;;2.60;58.60;;;;;;5037402;28;20120;-75
2022/03/08 06:41:40;;;;;;;8.85;6.70;;;2.60;58.50;;;;;;5046383;28;20028;-75
2022/03/08 06:44:06;;;;;;;7.82;5.85;;;2.60;58.50;;;;;;5043724;28;20060;-75
2022/03/08 06:46:31;;;;;;;8.48;7.15;;;2.70;58.60;;;;;;5047835;28;20066;-75
2022/03/08 06:48:57;;;;;;;8.10;6.53;;;2.60;58.60;;;;;;5046988;28;20035;-75
2022/03/08 06:51:22;;;;;;;7.63;6.00;;;2.60;58.60;;;;;;5038413;28;20060;-75
2022/03/08 06:53:48;;;;;;;8.10;6.40;;;2.60;58.60;;;;;;5044468;28;20032;-75
2022/03/08 06:56:14;;;;;;;8.27;6.55;;;2.60;58.60;;;;;;5044626;28;20033;-75
2022/03/08 06:58:39;;;;;;;9.57;6.95;;;2.70;58.60;;;;;;5038247;28;20064;-75
2022/03/08 07:01:05;;;;;;;9.00;7.35;;;2.80;58.60;;;;;;5043796;28;20100;-75
2022/03/08 07:03:31;;;;;;;9.43;6.97;;;2.80;58.50;;;;;;5047118;28;20029;-75
2022/03/08 07:05:56;;;;;;;8.25;6.57;;;2.80;58.30;;;;;;5040594;28;20021;-75
2022/03/08 07:08:22;;;;;;;8.43;6.45;;;2.90;58.10;;;;;;5034857;28;20021;-75
2022/03/08 07:10:48;;;;;;;9.82;7.55;;;3.00;58.10;;;;;;5042230;28;20017;-71
2022/03/08 07:13:13;;;;;;;8.57;6.85;;;3.00;57.90;;;;;;5045277;28;20104;-72
2022/03/08 07:15:39;;;;;;;8.23;7.25;;;3.10;57.70;;;;;;5042681;28;20032;-72
2022/03/08 07:18:04;;;;;;;8.48;7.07;;;3.20;57.60;;;;;;5046447;28;20458;-72
2022/03/08 07:20:30;;;;;;;8.38;6.88;;;3.30;57.40;;;;;;5040776;28;20033;-72
2022/03/08 07:22:55;;;;;;;8.15;6.65;;;3.30;57.20;;;;;;5047651;28;20051;-72
2022/03/08 07:25:21;;;;;;;9.40;6.20;;;3.30;56.90;;;;;;5044648;28;20417;-72
2022/03/08 07:27:47;;;;;;;8.20;6.45;;;3.40;56.90;;;;;;5043840;28;20440;-72
2022/03/08 07:30:12;;;;;;;9.60;6.80;;;3.40;56.70;;;;;;5042253;28;20017;-72
2022/03/08 07:32:38;;;;;;;8.38;6.30;;;3.60;56.70;;;;;;5038040;28;20040;-72
2022/03/08 07:35:05;;;;;;;11.07;7.63;;;3.60;56.40;;;;;;5044720;28;20020;-72
2022/03/08 07:37:38;;;;;;;9.73;7.47;;;3.60;56.10;;;;;;5045709;28;20520;-72
2022/03/08 07:40:04;;;;;;;;;;;3.60;56.10;;;;;;5042446;28;20208;-72
2022/03/08 07:42:30;;;;;;;10.88;7.72;;;3.60;56.00;;;;;;5047876;28;20447;-72
2022/03/08 07:44:55;;;;;;;11.63;8.60;;;3.60;56.10;;;;;;5041577;28;20107;-72
2022/03/08 07:47:21;;;;;;;9.65;7.57;;;3.60;55.80;;;;;;5042793;28;20110;-72
2022/03/08 07:49:46;;;;;;;11.70;7.43;;;3.70;55.90;;;;;;5043579;28;20052;-72
2022/03/08 07:52:12;;;;;;;8.50;6.10;;;3.70;56.10;;;;;;5039959;28;20461;-71
2022/03/08 07:54:38;;;;;;;9.63;6.97;;;3.80;56.10;;;;;;5041153;28;20041;-71
2022/03/08 07:57:04;;;;;;;8.68;7.15;;;3.90;55.90;;;;;;5042949;28;20013;-71
2022/03/08 07:59:29;;;;;;;8.05;6.63;;;3.90;55.80;;;;;;5047131;28;20472;-72
2022/03/08 08:01:55;;;;;;;8.68;6.43;;;4.00;55.80;;;;;;5049952;28;20043;-71
2022/03/08 08:04:20;;;;;;;12.20;8.55;;;4.10;55.70;;;;;;5046129;28;20068;-72
2022/03/08 08:06:46;;;;;;;9.63;7.03;;;4.10;55.50;;;;;;5045545;28;20480;-72
2022/03/08 08:09:12;;;;;;;9.63;6.90;;;4.10;55.50;;;;;;5048780;28;20035;-71
2022/03/08 08:11:38;;;;;;;11.43;7.55;;;4.20;55.50;;;;;;5050736;28;20045;-72
2022/03/08 08:14:04;;;;;;;12.82;7.80;;;4.20;55.30;;;;;;5043734;28;20075;-72
2022/03/08 08:16:29;;;;;;;9.38;7.25;;;4.20;55.50;;;;;;5044490;28;20017;-71
2022/03/08 08:18:55;;;;;;;10.00;7.47;;;4.30;55.50;;;;;;5048532;28;20122;-71
2022/03/08 08:21:20;;;;;;;9.73;7.32;;;4.30;55.30;;;;;;5043672;28;20052;-72
2022/03/08 08:23:46;;;;;;;10.98;7.78;;;4.30;55.40;;;;;;5047249;28;20067;-71
2022/03/08 08:26:12;;;;;;;10.18;8.00;;;4.40;55.30;;;;;;5047480;28;20033;-71
2022/03/08 08:28:37;;;;;;;9.38;7.45;;;4.40;55.20;;;;;;5045062;28;20033;-71
2022/03/08 08:31:03;;;;;;;9.38;7.28;;;4.60;55.20;;;;;;5040947;28;20025;-72
2022/03/08 08:33:28;;;;;;;9.95;7.10;;;4.50;55.10;;;;;;5048001;28;20009;-71
2022/03/08 08:35:55;;;;;;;9.73;7.40;;;4.60;55.00;;;;;;5044977;28;20498;-71
2022/03/08 08:38:21;;;;;;;8.82;7.03;;;4.70;54.80;;;;;;5046473;28;20052;-72
2022/03/08 08:40:46;;;;;;;9.15;6.93;;;4.80;54.80;;;;;;5046965;28;20021;-71
2022/03/08 08:43:12;;;;;;;10.00;7.20;;;4.90;54.70;;;;;;5042175;28;20067;-72
2022/03/08 08:45:37;;;;;;;8.50;6.53;;;5.00;54.40;;;;;;5049889;28;20047;-71
2022/03/08 08:48:05;;;;;;;9.82;7.32;;;5.10;54.30;;;;;;5045593;28;20021;-71
2022/03/08 08:50:31;;;;;;;9.05;7.47;;;5.20;53.90;;;;;;5043081;28;20025;-71
2022/03/08 08:52:56;;;;;;;9.02;6.85;;;5.20;53.70;;;;;;5041569;28;20379;-71
2022/03/08 08:55:25;;;;;;;10.40;7.00;;;5.20;53.60;;;;;;5043692;28;20029;-72
2022/03/08 08:57:51;;;;;;;9.23;6.60;;;5.40;53.10;;;;;;5044625;28;20053;-71
2022/03/08 09:00:16;;;;;;;8.30;6.63;;;5.40;53.20;;;;;;5041414;28;20094;-71
2022/03/08 09:02:43;;;;;;;8.82;6.10;;;5.60;53.20;;;;;;5047610;28;20064;-71
2022/03/08 09:05:10;;;;;;;7.40;5.63;;;5.60;52.50;;;;;;5048934;28;20021;-71
2022/03/08 09:07:36;;;;;;;9.38;6.75;;;5.70;52.70;;;;;;5049647;28;20109;-72
2022/03/08 09:10:03;;;;;;;8.63;6.78;;;5.80;52.30;;;;;;5039866;28;20104;-71
2022/03/08 09:12:29;;;;;;;7.45;5.88;;;5.90;52.20;;;;;;5041319;28;20406;-72
2022/03/08 09:14:54;;;;;;;9.57;7.03;;;5.90;52.10;;;;;;5044220;28;20021;-72
2022/03/08 09:17:20;;;;;;;7.63;5.57;;;6.10;52.00;;;;;;5045182;28;20029;-71
2022/03/08 09:19:45;;;;;;;8.32;6.65;;;6.10;51.50;;;;;;5042012;28;20017;-71
2022/03/08 09:22:11;;;;;;;8.88;6.35;;;6.10;50.60;;;;;;5043615;28;20041;-72
2022/03/08 09:24:39;;;;;;;7.72;5.47;;;6.20;50.50;;;;;;5043848;28;20020;-71
2022/03/08 09:27:04;;;;;;;7.18;5.80;;;6.30;50.50;;;;;;5043618;28;20020;-71
2022/03/08 09:29:30;;;;;;;8.90;6.32;;;6.40;49.50;;;;;;5041185;28;20274;-71
2022/03/08 09:31:55;;;;;;;8.50;6.13;;;6.40;48.80;;;;;;5042040;28;20017;-71
2022/03/08 09:34:21;;;;;;;7.88;6.40;;;6.50;48.70;;;;;;5043919;28;20025;-71
2022/03/08 09:36:46;;;;;;;6.70;5.38;;;6.60;48.50;;;;;;5035567;28;20375;-70
2022/03/08 09:39:12;;;;;;;8.52;6.13;;;6.60;48.10;;;;;;5039464;28;20037;-71
2022/03/08 09:41:39;;;;;;;7.40;5.13;;;6.80;48.00;;;;;;5041004;28;20021;-70
2022/03/08 09:44:06;;;;;;;7.93;5.82;;;6.80;47.90;;;;;;5042972;28;20384;-70
2022/03/08 09:46:33;;;;;;;8.13;5.72;;;6.90;47.00;;;;;;5042275;28;20021;-70
2022/03/08 09:48:58;;;;;;;8.10;5.50;;;6.90;47.20;;;;;;5045529;28;20112;-70
2022/03/08 09:51:24;;;;;;;8.40;5.65;;;7.00;46.80;;;;;;5043613;28;20027;-71
2022/03/08 09:53:54;;;;;;;8.60;5.57;;;7.00;46.40;;;;;;5044236;28;20416;-70
2022/03/08 09:56:20;;;;;;;7.75;5.38;;;7.00;46.40;;;;;;5041395;28;20025;-71
2022/03/08 09:58:46;;;;;;;7.25;5.28;;;7.10;46.30;;;;;;5042786;28;20028;-70
2022/03/08 10:01:11;;;;;;;6.82;5.32;;;7.20;46.30;;;;;;5032467;28;20021;-70
2022/03/08 10:03:39;;;;;;;7.25;5.28;;;7.20;45.50;;;;;;5040461;28;20067;-70
2022/03/08 10:06:06;;;;;;;10.02;6.35;;;7.20;45.60;;;;;;5035873;28;20418;-70
2022/03/08 10:08:32;;;;;;;9.82;5.57;;;7.30;45.70;;;;;;5039531;28;20022;-70
2022/03/08 10:11:12;;;;;;;7.18;5.57;;;7.30;45.80;;;;;;5040626;28;20345;-71
2022/03/08 10:13:48;;;;;;;9.63;5.88;;;7.30;45.30;;;;;;5042589;28;20021;-71
2022/03/08 10:16:24;;;;;;;9.02;5.85;;;7.40;45.50;;;;;;5041432;28;20032;-71
2022/03/08 10:18:58;;;;;;;7.18;5.60;;;7.40;45.00;;;;;;5042815;28;20028;-70
2022/03/08 10:21:45;;;;;;;8.48;5.53;;;7.40;45.40;;;;;;5036938;28;20017;-70
2022/03/08 10:24:22;;;;;;;8.10;5.60;;;7.50;45.50;;;;;;5045436;28;20040;-72
2022/03/08 10:26:55;;;;;;;8.55;5.80;;;7.60;45.60;;;;;;5044693;28;20036;-71
2022/03/08 10:29:32;;;;;;;6.65;5.22;;;7.70;45.60;;;;;;5048138;28;20064;-71
2022/03/08 10:32:16;;;;;;;7.90;6.18;;;7.80;45.30;;;;;;5036580;28;20029;-71
2022/03/08 10:34:43;;;;;;;6.80;5.82;;;7.80;45.00;;;;;;5044373;28;20453;-69
2022/03/08 10:37:14;;;;;;;8.82;6.43;;;7.80;45.20;;;;;;5046209;28;20036;-70
2022/03/08 10:39:54;;;;;;;7.20;5.40;;;7.80;44.60;;;;;;5040132;28;20465;-71
2022/03/08 10:42:28;;;;;;;7.90;5.90;;;7.90;45.30;;;;;;5045698;28;20119;-71
2022/03/08 10:45:14;;;;;;;8.38;6.28;;;8.00;45.00;;;;;;5046791;28;20446;-71
2022/03/08 10:47:47;;;;;;;7.85;5.80;;;8.00;44.90;;;;;;5038932;28;20021;-71
2022/03/08 10:50:15;;;;;;;7.32;5.10;;;8.10;44.60;;;;;;5041015;28;20108;-71
2022/03/08 10:52:44;;;;;;;7.55;5.68;;;8.20;44.40;;;;;;5044069;28;20029;-73
2022/03/08 10:55:13;;;;;;;7.20;5.40;;;8.20;44.10;;;;;;5046596;28;20021;-71
2022/03/08 10:57:41;;;;;;;5.85;4.65;;;8.20;44.10;;;;;;5045369;28;20507;-71
2022/03/08 11:00:11;;;;;;;9.00;6.00;;;8.30;44.30;;;;;;5047852;28;20051;-71
2022/03/08 11:02:47;;;;;;;7.68;5.55;;;8.40;44.20;;;;;;5045594;28;20094;-70
2022/03/08 11:05:13;;;;;;;7.88;5.65;;;8.50;43.10;;;;;;5050706;28;20416;-71
2022/03/08 11:07:39;;;;;;;7.57;5.60;;;8.60;43.30;;;;;;5039826;28;20025;-71
2022/03/08 11:10:08;;;;;;;9.40;6.00;;;8.70;43.60;;;;;;5042946;28;20071;-71
2022/03/08 11:12:34;;;;;;;7.90;5.60;;;8.80;43.40;;;;;;5047136;28;20021;-72
2022/03/08 11:15:00;;;;;;;8.60;4.95;;;8.80;42.80;;;;;;5035648;28;20071;-72
2022/03/08 11:17:26;;;;;;;9.20;5.38;;;8.90;43.10;;;;;;5043013;28;20037;-73
2022/03/08 11:19:51;;;;;;;7.65;5.60;;;9.00;42.90;;;;;;5044475;28;20230;-73
2022/03/08 11:22:19;;;;;;;8.18;5.10;;;9.10;42.00;;;;;;5047973;28;20021;-73
2022/03/08 11:24:48;;;;;;;7.13;5.50;;;9.10;42.10;;;;;;5041945;28;20067;-72
2022/03/08 11:27:15;;;;;;;7.60;4.97;;;9.10;41.80;;;;;;5041529;28;20472;-72
2022/03/08 11:29:41;;;;;;;7.93;5.00;;;9.10;41.10;;;;;;5042118;28;20401;-73
2022/03/08 11:32:17;;;;;;;7.35;4.32;;;9.20;40.20;;;;;;5045740;28;20117;-72
2022/03/08 11:34:55;;;;;;;6.07;4.10;;;9.20;39.50;;;;;;5051960;28;20123;-72
2022/03/08 11:37:23;;;;;;;5.50;3.95;;;9.30;39.60;;;;;;5042800;28;20021;-72
2022/03/08 11:40:11;;;;;;;7.25;4.47;;;9.30;38.90;;;;;;5050450;28;20017;-73
2022/03/08 11:42:41;;;;;;;6.78;4.30;;;9.40;38.30;;;;;;5044955;28;20120;-72
2022/03/08 11:45:28;;;;;;;8.13;3.90;;;9.50;38.60;;;;;;5051496;28;20028;-71
2022/03/08 11:48:05;;;;;;;5.90;4.63;;;9.60;39.00;;;;;;5048005;28;20136;-72
2022/03/08 11:50:33;;;;;;;5.30;4.13;;;9.60;38.00;;;;;;5045756;28;20036;-72
2022/03/08 11:53:11;;;;;;;5.40;3.85;;;9.80;37.60;;;;;;5040910;28;20064;-71
2022/03/08 11:55:44;;;;;;;8.10;4.70;;;9.90;37.10;;;;;;5048111;28;20021;-71
2022/03/08 11:58:16;;;;;;;5.63;4.50;;;9.90;36.30;;;;;;5047013;28;20041;-72
2022/03/08 12:00:59;;;;;;;5.55;4.10;;;9.90;36.70;;;;;;5045216;28;20410;-72
2022/03/08 12:03:24;;;;;;;6.43;4.00;;;9.90;36.60;;;;;;5042082;28;20041;-70
2022/03/08 12:05:57;;;;;;;4.55;3.78;;;10.00;36.80;;;;;;5050252;28;20032;-72
2022/03/08 12:08:28;;;;;;;5.00;3.75;;;10.10;37.10;;;;;;5045271;28;20124;-72
2022/03/08 12:11:24;;;;;;;6.83;4.50;;;10.20;37.80;;;;;;5051514;28;20067;-71
2022/03/08 12:14:00;;;;;;;5.72;4.60;;;10.40;36.50;;;;;;5047759;28;20479;-72
2022/03/08 12:16:27;;;;;;;5.90;4.43;;;10.30;35.80;;;;;;5045678;28;20061;-72
2022/03/08 12:18:55;;;;;;;6.20;4.90;;;10.30;35.90;;;;;;5045669;28;20045;-71
2022/03/08 12:21:20;;;;;;;6.70;4.15;;;10.40;35.40;;;;;;5043829;28;20033;-71
2022/03/08 12:23:58;;;;;;;7.70;4.80;;;10.40;36.10;;;;;;5042069;28;20098;-72
2022/03/08 12:26:48;;;;;;;6.05;4.45;;;10.40;35.30;;;;;;5046277;28;20121;-71
2022/03/08 12:29:29;;;;;;;7.35;5.07;;;10.40;35.40;;;;;;5047757;28;20104;-72
2022/03/08 12:32:06;;;;;;;6.15;4.80;;;10.50;35.20;;;;;;5042235;28;20116;-72
2022/03/08 12:34:43;;;;;;;5.75;4.28;;;10.40;34.60;;;;;;5041632;28;20025;-71
2022/03/08 12:37:14;;;;;;;6.80;4.90;;;10.50;35.30;;;;;;5037252;28;20119;-71
2022/03/08 12:40:00;;;;;;;6.67;4.87;;;10.50;35.20;;;;;;5040070;28;21054;-71
2022/03/08 12:42:38;;;;;;;6.53;4.55;;;10.60;35.40;;;;;;5045560;28;20138;-72
2022/03/08 12:45:06;;;;;;;7.15;4.57;;;10.70;35.30;;;;;;5038986;28;20013;-71
2022/03/08 12:47:43;;;;;;;4.85;3.78;;;10.80;35.40;;;;;;5041070;28;20045;-71
2022/03/08 12:50:12;;;;;;;7.03;4.60;;;10.80;35.50;;;;;;5039245;28;20021;-71
2022/03/08 12:52:47;;;;;;;6.55;4.60;;;10.90;35.00;;;;;;5041225;28;20104;-72
2022/03/08 12:55:19;;;;;;;6.47;4.40;;;10.90;34.40;;;;;;5037058;28;20545;-73
2022/03/08 12:57:51;;;;;;;5.70;4.60;;;10.90;34.50;;;;;;5041468;28;20079;-72